Time;durP1;ratioP1;P1;durP2;ratioP2;P2;SDS_P1;SDS_P2;PMS_P1;PMS_P2;Temp;Humidity;BMP_temperature;BMP_pressure;BME280_temperature;BME280_humidity;BME280_pressure;Samples;Min_cycle;Max_cycle;Signal;HPM_P1;HPM_P2
2023/07/22 00:00:45;;;;;;;;;;;;;;;22.34;38.24;101299.06;4155750;28;20076;-58
2023/07/22 00:02:47;;;;;;;;;;;;;;;22.33;38.41;101300.06;4137283;28;19925;-57
2023/07/22 00:04:49;;;;;;;;;;;;;;;22.32;38.19;101298.34;4151284;28;19968;-57
2023/07/22 00:06:50;;;;;;;;;;;;;;;22.32;38.06;101295.66;4148722;28;19928;-57
2023/07/22 00:08:53;;;;;;;;;;;;;;;22.33;38.19;101299.19;4165247;28;19964;-56
2023/07/22 00:10:55;;;;;;;;;;;;;;;22.31;38.44;101299.31;4157009;28;20395;-57
2023/07/22 00:12:56;;;;;;;;;;;;;;;22.31;38.31;101290.44;4162797;28;19925;-56
2023/07/22 00:14:58;;;;;;;;;;;;;;;22.29;38.06;101287.84;4164784;28;20360;-55
2023/07/22 00:16:59;;;;;;;;;;;;;;;22.29;38.01;101287.84;4154789;28;20295;-58
2023/07/22 00:19:01;;;;;;;;;;;;;;;22.29;38.24;101290.53;4165514;28;20292;-57
2023/07/22 00:21:03;;;;;;;;;;;;;;;22.29;38.17;101289.69;4158685;28;19921;-56
2023/07/22 00:23:04;;;;;;;;;;;;;;;22.28;38.57;101290.66;4160484;28;19928;-57
2023/07/22 00:25:09;;;;;;;;;;;;;;;22.27;38.57;101283.59;4148418;28;19925;-58
2023/07/22 00:27:11;;;;;;;;;;;;;;;22.26;38.55;101279.19;4153924;28;19928;-58
2023/07/22 00:29:12;;;;;;;;;;;;;;;22.26;38.47;101288.09;4165915;28;19921;-57
2023/07/22 00:31:14;;;;;;;;;;;;;;;22.26;38.24;101284.56;4159973;28;20016;-57
2023/07/22 00:33:16;;;;;;;;;;;;;;;22.25;38.52;101278.34;4159676;28;20347;-57
2023/07/22 00:35:18;;;;;;;;;;;;;;;22.25;38.08;101282.84;4165298;28;20384;-57
2023/07/22 00:37:20;;;;;;;;;;;;;;;22.25;38.51;101286.38;4152666;28;20389;-58
2023/07/22 00:39:21;;;;;;;;;;;;;;;22.24;38.16;101286.50;4165918;28;19925;-57
2023/07/22 00:41:23;;;;;;;;;;;;;;;22.24;38.16;101278.47;4161301;28;19927;-57
2023/07/22 00:43:25;;;;;;;;;;;;;;;22.24;38.32;101281.16;4157587;28;19921;-58
2023/07/22 00:45:27;;;;;;;;;;;;;;;22.22;38.55;101275.88;4165664;28;20020;-58
2023/07/22 00:47:28;;;;;;;;;;;;;;;22.22;38.53;101280.41;4152776;28;19969;-58
2023/07/22 00:49:30;;;;;;;;;;;;;;;22.22;38.54;101275.06;4165065;28;20304;-57
2023/07/22 00:51:32;;;;;;;;;;;;;;;22.20;38.23;101274.31;4152441;28;20048;-57
2023/07/22 00:53:33;;;;;;;;;;;;;;;22.20;38.48;101274.31;4159019;28;19921;-57
2023/07/22 00:55:38;;;;;;;;;;;;;;;22.19;38.53;101273.47;4149389;28;19921;-53
2023/07/22 00:57:40;;;;;;;;;;;;;;;22.18;38.60;101267.22;4158357;28;19925;-58
2023/07/22 00:59:42;;;;;;;;;;;;;;;22.18;38.59;101272.59;4150434;28;19921;-57
2023/07/22 01:01:43;;;;;;;;;;;;;;;22.18;38.41;101275.28;4150102;28;20412;-58
2023/07/22 01:03:46;;;;;;;;;;;;;;;22.18;38.32;101277.09;4160103;28;19933;-57
2023/07/22 01:05:48;;;;;;;;;;;;;;;22.16;38.58;101276.38;4148721;28;19921;-60
2023/07/22 01:07:50;;;;;;;;;;;;;;;22.16;38.60;101271.88;4157012;28;19928;-58
2023/07/22 01:09:55;;;;;;;;;;;;;;;22.15;38.38;101267.47;4151700;28;19922;-58
2023/07/22 01:11:57;;;;;;;;;;;;;;;22.14;38.36;101273.81;4150226;28;19936;-57
2023/07/22 01:13:59;;;;;;;;;;;;;;;22.14;38.48;101263.09;4160255;28;19931;-58
2023/07/22 01:16:01;;;;;;;;;;;;;;;22.14;38.58;101268.44;4149261;28;20020;-57
2023/07/22 01:18:03;;;;;;;;;;;;;;;22.13;38.55;101269.41;4155716;28;19920;-57
2023/07/22 01:20:05;;;;;;;;;;;;;;;22.13;38.46;101265.91;4152818;28;19928;-57
2023/07/22 01:22:07;;;;;;;;;;;;;;;22.13;38.69;101268.56;4148311;28;19971;-57
2023/07/22 01:24:09;;;;;;;;;;;;;;;22.10;38.70;101261.63;4159418;28;19935;-57
2023/07/22 01:26:12;;;;;;;;;;;;;;;22.11;38.28;101255.28;4148886;28;19922;-57
2023/07/22 01:28:13;;;;;;;;;;;;;;;22.10;38.69;101258.06;4153823;28;19921;-58
2023/07/22 01:30:15;;;;;;;;;;;;;;;22.09;38.21;101256.38;4154242;28;19964;-60
2023/07/22 01:32:16;;;;;;;;;;;;;;;22.09;38.71;101254.56;4149685;28;19928;-57
2023/07/22 01:34:18;;;;;;;;;;;;;;;22.09;38.65;101253.69;4155580;28;19925;-57
2023/07/22 01:36:19;;;;;;;;;;;;;;;22.07;38.74;101248.44;4131454;28;20397;-57
2023/07/22 01:38:21;;;;;;;;;;;;;;;22.07;38.65;101248.44;4151845;28;19925;-57
2023/07/22 01:40:24;;;;;;;;;;;;;;;22.07;38.41;101244.94;4155965;28;19971;-57
2023/07/22 01:42:26;;;;;;;;;;;;;;;22.06;38.55;101246.75;4148578;28;19945;-58
2023/07/22 01:44:27;;;;;;;;;;;;;;;22.06;38.72;101241.38;4152321;28;20373;-57
2023/07/22 01:46:29;;;;;;;;;;;;;;;22.05;38.61;101247.72;4164888;28;19929;-58
2023/07/22 01:48:32;;;;;;;;;;;;;;;22.06;38.65;101251.25;4160100;28;20367;-57
2023/07/22 01:50:33;;;;;;;;;;;;;;;22.04;38.40;101246.00;4148553;28;19925;-57
2023/07/22 01:52:35;;;;;;;;;;;;;;;22.04;38.62;101247.84;4148310;28;19921;-56
2023/07/22 01:54:36;;;;;;;;;;;;;;;22.03;38.80;101247.00;4159019;28;19921;-56
2023/07/22 01:56:38;;;;;;;;;;;;;;;22.03;38.62;101249.66;4149569;28;19928;-55
2023/07/22 01:58:40;;;;;;;;;;;;;;;22.04;38.62;101253.19;4148515;28;19966;-57
2023/07/22 02:00:42;;;;;;;;;;;;;;;22.04;38.74;101253.19;4158726;28;19922;-56
2023/07/22 02:02:48;;;;;;;;;;;;;;;22.01;38.46;101248.94;4148218;28;19952;-57
2023/07/22 02:04:50;;;;;;;;;;;;;;;22.01;38.52;101251.59;4157601;28;19921;-57
2023/07/22 02:06:52;;;;;;;;;;;;;;;22.00;38.72;101244.53;4150574;28;20308;-56
2023/07/22 02:08:53;;;;;;;;;;;;;;;22.00;38.50;101237.34;4148209;28;20441;-58
2023/07/22 02:10:55;;;;;;;;;;;;;;;21.99;38.70;101241.00;4159161;28;19932;-56
2023/07/22 02:12:56;;;;;;;;;;;;;;;21.99;38.82;101248.19;4148337;28;19925;-55
2023/07/22 02:15:03;;;;;;;;;;;;;;;21.99;38.81;101245.50;4155233;28;19965;-57
2023/07/22 02:17:10;;;;;;;;;;;;;;;21.98;38.90;101250.00;4150879;28;19925;-57
2023/07/22 02:19:12;;;;;;;;;;;;;;;21.98;38.91;101249.13;4147973;28;20315;-57
2023/07/22 02:21:13;;;;;;;;;;;;;;;21.96;38.91;101246.59;4158642;28;19928;-57
2023/07/22 02:23:15;;;;;;;;;;;;;;;21.96;38.86;101246.59;4147882;28;20409;-58
2023/07/22 02:25:16;;;;;;;;;;;;;;;21.96;38.46;101246.59;4155531;28;20040;-57
2023/07/22 02:27:18;;;;;;;;;;;;;;;21.95;38.60;101244.88;4152278;28;19922;-57
2023/07/22 02:29:24;;;;;;;;;;;;;;;21.95;38.52;101249.38;4148242;28;20015;-58
2023/07/22 02:31:26;;;;;;;;;;;;;;;21.94;38.72;101248.50;4158867;28;19922;-57
2023/07/22 02:33:27;;;;;;;;;;;;;;;21.94;38.53;101242.31;4147410;28;19928;-59
2023/07/22 02:35:29;;;;;;;;;;;;;;;21.93;38.90;101232.56;4154522;28;19931;-57
2023/07/22 02:37:38;;;;;;;;;;;;;;;21.93;38.75;101240.59;4151726;28;20008;-57
2023/07/22 02:39:44;;;;;;;;;;;;;;;21.92;38.71;101244.25;4148528;28;19951;-58
2023/07/22 02:41:46;;;;;;;;;;;;;;;21.93;38.60;101243.28;4158822;28;20149;-58
2023/07/22 02:43:47;;;;;;;;;;;;;;;21.91;38.93;101243.41;4148248;28;19967;-57
2023/07/22 02:45:49;;;;;;;;;;;;;;;21.91;38.76;101243.41;4140540;28;20462;-57
2023/07/22 02:47:50;;;;;;;;;;;;;;;21.91;38.68;101248.75;4157283;28;20003;-57
2023/07/22 02:49:52;;;;;;;;;;;;;;;21.90;38.84;101249.72;4163372;28;19925;-58
2023/07/22 02:51:54;;;;;;;;;;;;;;;21.90;38.69;101249.72;4152812;28;20403;-57
2023/07/22 02:53:55;;;;;;;;;;;;;;;21.88;38.85;101240.94;4163931;28;19921;-57
2023/07/22 02:55:57;;;;;;;;;;;;;;;21.89;38.95;101247.19;4158564;28;19995;-57
2023/07/22 02:57:58;;;;;;;;;;;;;;;21.88;38.93;101248.97;4155520;28;20084;-58
2023/07/22 03:00:00;;;;;;;;;;;;;;;21.88;39.01;101245.47;4163500;28;19925;-58
2023/07/22 03:02:06;;;;;;;;;;;;;;;21.88;38.64;101248.13;4133669;28;19952;-58
2023/07/22 03:04:14;;;;;;;;;;;;;;;21.88;38.62;101245.47;4163805;28;20024;-58
2023/07/22 03:06:20;;;;;;;;;;;;;;;21.86;38.86;101245.59;4158019;28;19926;-57
2023/07/22 03:08:22;;;;;;;;;;;;;;;21.85;38.61;101252.75;4156033;28;20280;-58
2023/07/22 03:10:25;;;;;;;;;;;;;;;21.85;38.68;101252.75;4163561;28;20295;-57
2023/07/22 03:12:27;;;;;;;;;;;;;;;21.85;38.75;101250.06;4150318;28;19925;-57
2023/07/22 03:14:28;;;;;;;;;;;;;;;21.84;39.14;101251.03;4163729;28;19921;-57
2023/07/22 03:16:35;;;;;;;;;;;;;;;21.83;38.73;101251.16;4158713;28;19925;-57
2023/07/22 03:18:38;;;;;;;;;;;;;;;21.84;39.01;101252.88;4154812;28;19921;-58
2023/07/22 03:20:41;;;;;;;;;;;;;;;21.82;39.03;101253.00;4163845;28;20015;-59
2023/07/22 03:22:43;;;;;;;;;;;;;;;21.82;39.17;101253.00;4141440;28;20069;-57
2023/07/22 03:24:45;;;;;;;;;;;;;;;21.81;39.20;101248.59;4131198;28;19922;-57
2023/07/22 03:26:46;;;;;;;;;;;;;;;21.82;39.04;101249.44;4141645;28;20448;-58
2023/07/22 03:28:48;;;;;;;;;;;;;;;21.81;39.02;101251.28;4155260;28;19949;-57
2023/07/22 03:30:49;;;;;;;;;;;;;;;21.80;39.14;101252.25;4147164;28;20012;-58
2023/07/22 03:32:51;;;;;;;;;;;;;;;21.81;38.90;101259.31;4158740;28;20403;-58
2023/07/22 03:34:53;;;;;;;;;;;;;;;21.80;39.18;101259.41;4151830;28;20360;-57
2023/07/22 03:36:54;;;;;;;;;;;;;;;21.79;38.90;101261.25;4151484;28;20303;-57
2023/07/22 03:38:56;;;;;;;;;;;;;;;21.79;38.79;101260.41;4160128;28;20028;-58
2023/07/22 03:40:57;;;;;;;;;;;;;;;21.78;39.08;101259.53;4133119;28;19961;-56
2023/07/22 03:42:59;;;;;;;;;;;;;;;21.78;38.86;101256.84;4158996;28;19921;-58
2023/07/22 03:45:01;;;;;;;;;;;;;;;21.78;38.85;101262.22;4153342;28;19932;-57
2023/07/22 03:47:03;;;;;;;;;;;;;;;21.77;39.00;101262.31;4151016;28;19921;-57
2023/07/22 03:49:04;;;;;;;;;;;;;;;21.76;39.26;101257.94;4160121;28;19921;-57
2023/07/22 03:51:06;;;;;;;;;;;;;;;21.75;38.85;101257.09;4162166;28;19971;-58
2023/07/22 03:53:21;;;;;;;;;;;;;;;21.76;38.81;101263.28;4156857;28;19979;-57
2023/07/22 03:55:22;;;;;;;;;;;;;;;21.75;39.08;101256.22;4163419;28;20027;-57
2023/07/22 03:57:27;;;;;;;;;;;;;;;21.74;38.82;101251.84;4165325;28;19921;-57
2023/07/22 03:59:29;;;;;;;;;;;;;;;21.74;38.94;101257.19;4147312;28;19922;-57
2023/07/22 04:01:30;;;;;;;;;;;;;;;21.72;39.01;101254.63;4166626;28;19964;-57
2023/07/22 04:03:33;;;;;;;;;;;;;;;21.73;39.01;101255.50;4144800;28;19925;-57
2023/07/22 04:05:34;;;;;;;;;;;;;;;21.72;38.78;101253.78;4154264;28;19964;-55
2023/07/22 04:07:37;;;;;;;;;;;;;;;21.72;38.96;101253.78;4151052;28;19961;-57
2023/07/22 04:09:38;;;;;;;;;;;;;;;21.70;38.84;101252.09;4160102;28;19922;-58
2023/07/22 04:11:40;;;;;;;;;;;;;;;21.70;39.08;101254.75;4150215;28;20343;-57
2023/07/22 04:13:41;;;;;;;;;;;;;;;21.70;38.96;101252.09;4155973;28;19928;-57
2023/07/22 04:15:43;;;;;;;;;;;;;;;21.70;38.98;101253.88;4147978;28;20374;-58
2023/07/22 04:17:44;;;;;;;;;;;;;;;21.65;39.11;101248.91;4150130;28;19922;-58
2023/07/22 04:19:46;;;;;;;;;;;;;;;21.69;39.22;101249.53;4160418;28;19921;-58
2023/07/22 04:21:47;;;;;;;;;;;;;;;21.68;39.05;101248.66;4147527;28;19948;-58
2023/07/22 04:23:49;;;;;;;;;;;;;;;21.68;38.80;101255.84;4146199;28;19928;-58
2023/07/22 04:25:50;;;;;;;;;;;;;;;21.68;39.20;101254.00;4157537;28;19921;-57
2023/07/22 04:27:52;;;;;;;;;;;;;;;21.67;39.13;101254.97;4149481;28;19956;-58
2023/07/22 04:29:53;;;;;;;;;;;;;;;21.67;39.07;101254.97;4160238;28;19928;-57
2023/07/22 04:31:59;;;;;;;;;;;;;;;21.67;39.17;101244.25;4149799;28;19921;-58
2023/07/22 04:34:00;;;;;;;;;;;;;;;21.65;38.94;101248.91;4152105;28;19926;-57
2023/07/22 04:36:02;;;;;;;;;;;;;;;21.66;38.96;101249.75;4158491;28;19967;-58
2023/07/22 04:38:04;;;;;;;;;;;;;;;21.66;39.22;101249.75;4148768;28;19960;-58
2023/07/22 04:40:08;;;;;;;;;;;;;;;21.65;39.24;101259.59;4159552;28;20287;-57
2023/07/22 04:42:10;;;;;;;;;;;;;;;21.65;39.24;101256.94;4150728;28;19922;-58
2023/07/22 04:44:11;;;;;;;;;;;;;;;21.66;38.99;101265.81;4150405;28;20016;-57
2023/07/22 04:46:13;;;;;;;;;;;;;;;21.65;39.09;101272.13;4159809;28;19929;-57
2023/07/22 04:48:15;;;;;;;;;;;;;;;21.64;39.19;101275.75;4148762;28;20313;-57
2023/07/22 04:50:17;;;;;;;;;;;;;;;21.63;39.28;101271.38;4152544;28;19975;-57
2023/07/22 04:52:23;;;;;;;;;;;;;;;21.64;39.19;101275.75;4163322;28;19921;-57
2023/07/22 04:54:28;;;;;;;;;;;;;;;21.63;39.32;101279.41;4163966;28;19936;-57
2023/07/22 04:56:30;;;;;;;;;;;;;;;21.63;39.33;101274.91;4154690;28;19925;-57
2023/07/22 04:58:31;;;;;;;;;;;;;;;21.63;39.26;101274.03;4146713;28;20312;-57
2023/07/22 05:00:33;;;;;;;;;;;;;;;21.63;39.30;101272.25;4156508;28;20016;-57
2023/07/22 05:02:35;;;;;;;;;;;;;;;21.59;39.18;101273.41;4153947;28;19936;-57
2023/07/22 05:04:36;;;;;;;;;;;;;;;21.63;38.95;101274.03;4150152;28;19921;-55
2023/07/22 05:06:38;;;;;;;;;;;;;;;21.63;39.12;101274.03;4160011;28;20032;-54
2023/07/22 05:08:40;;;;;;;;;;;;;;;21.62;39.28;101270.53;4147915;28;20456;-57
2023/07/22 05:10:41;;;;;;;;;;;;;;;21.62;39.22;101267.84;4155884;28;19921;-56
2023/07/22 05:12:43;;;;;;;;;;;;;;;21.62;39.36;101264.34;4153892;28;19975;-58
2023/07/22 05:14:45;;;;;;;;;;;;;;;21.61;39.08;101271.50;4150146;28;20173;-57
2023/07/22 05:16:47;;;;;;;;;;;;;;;21.61;39.10;101263.47;4159975;28;19928;-51
2023/07/22 05:18:48;;;;;;;;;;;;;;;21.61;39.30;101267.97;4148105;28;19968;-58
2023/07/22 05:20:50;;;;;;;;;;;;;;;21.62;39.12;101267.00;4153953;28;19990;-57
2023/07/22 05:22:52;;;;;;;;;;;;;;;21.60;39.13;101264.41;4163698;28;20020;-58
2023/07/22 05:24:53;;;;;;;;;;;;;;;21.61;39.25;101265.28;4165021;28;19927;-58
2023/07/22 05:26:55;;;;;;;;;;;;;;;21.61;39.18;101259.94;4152470;28;20001;-57
2023/07/22 05:29:09;;;;;;;;;;;;;;;21.60;39.28;101263.59;4163974;28;19921;-56
2023/07/22 05:31:11;;;;;;;;;;;;;;;21.60;39.34;101266.25;4159352;28;19925;-56
2023/07/22 05:33:13;;;;;;;;;;;;;;;21.60;39.34;101271.59;4158403;28;19921;-58
2023/07/22 05:35:15;;;;;;;;;;;;;;;21.60;39.49;101267.09;4164740;28;19921;-57
2023/07/22 05:37:16;;;;;;;;;;;;;;;21.60;39.33;101266.25;4152451;28;20019;-58
2023/07/22 05:39:18;;;;;;;;;;;;;;;21.63;39.35;101263.34;4164131;28;19921;-57
2023/07/22 05:41:20;;;;;;;;;;;;;;;21.65;39.46;101269.44;4160532;28;19928;-56
2023/07/22 05:43:21;;;;;;;;;;;;;;;21.67;39.52;101264.84;4156647;28;20015;-57
2023/07/22 05:45:23;;;;;;;;;;;;;;;21.68;39.54;101262.03;4164721;28;19967;-57
2023/07/22 05:47:25;;;;;;;;;;;;;;;21.68;39.35;101262.03;4153524;28;19929;-57
2023/07/22 05:49:27;;;;;;;;;;;;;;;21.70;39.60;101264.59;4162795;28;20012;-57
2023/07/22 05:51:29;;;;;;;;;;;;;;;21.69;39.34;101262.91;4151702;28;19927;-57
2023/07/22 05:53:32;;;;;;;;;;;;;;;21.69;39.39;101263.75;4158265;28;20312;-58
2023/07/22 05:55:34;;;;;;;;;;;;;;;21.69;39.42;101262.91;4147468;28;19928;-57
2023/07/22 05:57:36;;;;;;;;;;;;;;;21.69;39.25;101260.25;4157273;28;20015;-57
2023/07/22 05:59:37;;;;;;;;;;;;;;;21.69;39.10;101261.06;4149343;28;19921;-57
2023/07/22 06:01:39;;;;;;;;;;;;;;;21.69;39.20;101258.41;4149178;28;19921;-58
2023/07/22 06:03:42;;;;;;;;;;;;;;;21.69;39.10;101266.44;4159192;28;19925;-58
2023/07/22 06:05:43;;;;;;;;;;;;;;;21.68;39.18;101259.38;4148341;28;20039;-57
2023/07/22 06:07:45;;;;;;;;;;;;;;;21.68;39.41;101267.38;4155995;28;19921;-58
2023/07/22 06:09:47;;;;;;;;;;;;;;;21.69;39.10;101266.44;4133134;28;19921;-57
2023/07/22 06:11:48;;;;;;;;;;;;;;;21.69;38.86;101265.59;4149164;28;20496;-57
2023/07/22 06:13:51;;;;;;;;;;;;;;;21.68;38.96;101264.72;4141578;28;19991;-57
2023/07/22 06:15:52;;;;;;;;;;;;;;;21.67;39.26;101263.00;4147892;28;19928;-56
2023/07/22 06:17:54;;;;;;;;;;;;;;;21.67;38.90;101260.31;4154452;28;20012;-57
2023/07/22 06:19:55;;;;;;;;;;;;;;;21.68;39.28;101266.56;4152409;28;19921;-56
2023/07/22 06:21:57;;;;;;;;;;;;;;;21.67;39.22;101271.03;4147316;28;19972;-58
2023/07/22 06:23:58;;;;;;;;;;;;;;;21.67;39.17;101268.34;4158704;28;19965;-56
2023/07/22 06:26:00;;;;;;;;;;;;;;;21.66;39.04;101272.00;4147639;28;20343;-57
2023/07/22 06:28:01;;;;;;;;;;;;;;;21.66;38.93;101277.34;4139540;28;19925;-57
2023/07/22 06:30:03;;;;;;;;;;;;;;;21.66;39.21;101269.31;4138729;28;19921;-57
2023/07/22 06:32:05;;;;;;;;;;;;;;;21.67;39.24;101268.34;4164186;28;20011;-57
2023/07/22 06:34:07;;;;;;;;;;;;;;;21.67;38.97;101272.88;4159771;28;19971;-57
2023/07/22 06:36:08;;;;;;;;;;;;;;;21.66;39.02;101269.31;4148197;28;19921;-57
2023/07/22 06:38:10;;;;;;;;;;;;;;;21.66;39.08;101260.44;4150782;28;19925;-58
2023/07/22 06:40:11;;;;;;;;;;;;;;;21.65;39.31;101273.00;4155334;28;19927;-56
2023/07/22 06:42:12;;;;;;;;;;;;;;;21.65;39.10;101278.34;4147765;28;20011;-57
2023/07/22 06:44:14;;;;;;;;;;;;;;;21.65;38.97;101270.31;4157915;28;20331;-56
2023/07/22 06:46:16;;;;;;;;;;;;;;;21.65;39.31;101264.97;4149347;28;19928;-57
2023/07/22 06:48:18;;;;;;;;;;;;;;;21.66;39.25;101271.16;4148940;28;19921;-57
2023/07/22 06:50:19;;;;;;;;;;;;;;;21.65;39.09;101273.00;4162813;28;19921;-57
2023/07/22 06:52:21;;;;;;;;;;;;;;;21.66;39.16;101266.66;4164083;28;19937;-57
2023/07/22 06:54:22;;;;;;;;;;;;;;;21.67;39.20;101265.69;4154256;28;19972;-56
2023/07/22 06:56:26;;;;;;;;;;;;;;;21.67;39.21;101257.66;4160832;28;19964;-57
2023/07/22 06:58:27;;;;;;;;;;;;;;;21.68;38.99;101261.19;4145485;28;19928;-57
2023/07/22 07:00:29;;;;;;;;;;;;;;;21.67;39.23;101260.31;4135097;28;19921;-58
2023/07/22 07:02:30;;;;;;;;;;;;;;;21.67;39.41;101257.66;4156454;28;20012;-57
2023/07/22 07:04:32;;;;;;;;;;;;;;;21.68;39.34;101261.19;4154917;28;20028;-57
2023/07/22 07:06:34;;;;;;;;;;;;;;;21.69;39.09;101258.41;4152240;28;20333;-57
2023/07/22 07:08:37;;;;;;;;;;;;;;;21.69;39.47;101257.56;4129579;28;19929;-57
2023/07/22 07:10:39;;;;;;;;;;;;;;;21.69;39.32;101263.75;4158062;28;19961;-57
2023/07/22 07:12:40;;;;;;;;;;;;;;;21.72;39.56;101254.63;4147587;28;19956;-57
2023/07/22 07:14:45;;;;;;;;;;;;;;;21.71;39.40;101260.94;4152879;28;20467;-57
2023/07/22 07:16:47;;;;;;;;;;;;;;;21.73;39.55;101259.03;4151933;28;20016;-57
2023/07/22 07:18:48;;;;;;;;;;;;;;;21.74;39.62;101258.06;4147413;28;20012;-57
2023/07/22 07:20:50;;;;;;;;;;;;;;;21.76;39.61;101255.25;4158360;28;19921;-57
2023/07/22 07:22:52;;;;;;;;;;;;;;;21.78;39.74;101256.84;4146766;28;19925;-57
2023/07/22 07:24:54;;;;;;;;;;;;;;;21.78;39.49;101259.53;4134412;28;19929;-57
2023/07/22 07:26:55;;;;;;;;;;;;;;;21.78;39.74;101264.88;4154865;28;19923;-57
2023/07/22 07:28:56;;;;;;;;;;;;;;;21.79;39.78;101261.25;4146340;28;19928;-57
2023/07/22 07:30:58;;;;;;;;;;;;;;;21.80;39.53;101268.31;4159092;28;19959;-57
2023/07/22 07:33:00;;;;;;;;;;;;;;;21.81;39.67;101263.78;4147423;28;19921;-57
2023/07/22 07:35:04;;;;;;;;;;;;;;;21.74;39.55;101251.84;4149882;28;20484;-57
2023/07/22 07:37:06;;;;;;;;;;;;;;;21.80;39.79;101268.31;4155572;28;19943;-57
2023/07/22 07:39:07;;;;;;;;;;;;;;;21.81;39.47;101270.03;4146361;28;20029;-57
2023/07/22 07:41:11;;;;;;;;;;;;;;;21.80;39.85;101276.34;4157828;28;19921;-57
2023/07/22 07:43:13;;;;;;;;;;;;;;;21.79;39.71;101274.63;4148412;28;19971;-58
2023/07/22 07:45:15;;;;;;;;;;;;;;;21.79;39.65;101274.63;4148794;28;20004;-57
2023/07/22 07:47:16;;;;;;;;;;;;;;;21.78;39.91;101277.44;4157208;28;19921;-57
2023/07/22 07:49:18;;;;;;;;;;;;;;;21.80;39.77;101275.47;4146305;28;19949;-57
2023/07/22 07:51:20;;;;;;;;;;;;;;;21.80;39.88;101265.63;4150335;28;19969;-57
2023/07/22 07:53:22;;;;;;;;;;;;;;;21.82;39.66;101277.09;4143505;28;19975;-56
2023/07/22 07:55:24;;;;;;;;;;;;;;;21.82;39.59;101262.84;4161808;28;19935;-57
2023/07/22 07:57:25;;;;;;;;;;;;;;;21.83;39.98;101267.22;4152308;28;19967;-57
2023/07/22 07:59:27;;;;;;;;;;;;;;;21.84;39.79;101267.09;4162511;28;19921;-56
2023/07/22 08:01:28;;;;;;;;;;;;;;;21.85;39.84;101268.81;4155209;28;20025;-57
2023/07/22 08:03:30;;;;;;;;;;;;;;;21.86;39.83;101264.34;4158739;28;20379;-57
2023/07/22 08:05:32;;;;;;;;;;;;;;;21.85;39.60;101274.16;4161772;28;20332;-57
2023/07/22 08:07:34;;;;;;;;;;;;;;;21.86;39.50;101261.66;4152274;28;20299;-59
2023/07/22 08:09:36;;;;;;;;;;;;;;;21.87;39.96;101266.00;4162288;28;19952;-56
2023/07/22 08:11:38;;;;;;;;;;;;;;;21.88;39.62;101266.88;4156598;28;19921;-56
2023/07/22 08:13:40;;;;;;;;;;;;;;;21.88;39.87;101262.38;4157373;28;19927;-56
2023/07/22 08:15:42;;;;;;;;;;;;;;;21.88;39.71;101267.72;4162042;28;19921;-57
2023/07/22 08:17:44;;;;;;;;;;;;;;;21.90;39.53;101263.13;4151917;28;20379;-56
2023/07/22 08:19:45;;;;;;;;;;;;;;;21.92;39.90;101263.88;4163461;28;20287;-57
2023/07/22 08:21:47;;;;;;;;;;;;;;;21.92;39.56;101263.00;4160492;28;19921;-57
2023/07/22 08:23:48;;;;;;;;;;;;;;;21.93;39.78;101262.03;4158822;28;19921;-57
2023/07/22 08:25:50;;;;;;;;;;;;;;;21.90;39.87;101260.44;4166172;28;19957;-57
2023/07/22 08:27:51;;;;;;;;;;;;;;;21.88;39.76;101254.34;4153841;28;19952;-57
2023/07/22 08:29:53;;;;;;;;;;;;;;;21.92;39.88;101260.31;4165135;28;20403;-56
2023/07/22 08:31:55;;;;;;;;;;;;;;;21.92;39.67;101265.69;4162510;28;20354;-57
2023/07/22 08:33:56;;;;;;;;;;;;;;;21.91;39.75;101264.84;4156609;28;19920;-57
2023/07/22 08:35:58;;;;;;;;;;;;;;;21.92;39.94;101263.00;4165767;28;19921;-57
2023/07/22 08:38:00;;;;;;;;;;;;;;;21.92;39.81;101257.63;4155737;28;20426;-57
2023/07/22 08:40:01;;;;;;;;;;;;;;;21.90;39.81;101260.44;4163143;28;20299;-56
2023/07/22 08:42:04;;;;;;;;;;;;;;;21.90;39.67;101255.09;4164237;28;20028;-57
2023/07/22 08:44:08;;;;;;;;;;;;;;;21.89;39.99;101248.00;4155031;28;19921;-57
2023/07/22 08:46:10;;;;;;;;;;;;;;;21.90;39.91;101248.88;4165950;28;19964;-57
2023/07/22 08:48:14;;;;;;;;;;;;;;;21.90;40.02;101247.06;4156247;28;19980;-58
2023/07/22 08:50:19;;;;;;;;;;;;;;;21.90;39.70;101249.72;4156870;28;19921;-57
2023/07/22 08:52:22;;;;;;;;;;;;;;;21.92;39.88;101250.47;4150528;28;20355;-57
2023/07/22 08:54:23;;;;;;;;;;;;;;;21.93;39.93;101244.13;4154434;28;19929;-57
2023/07/22 08:56:25;;;;;;;;;;;;;;;21.94;39.84;101242.31;4165825;28;19921;-57
2023/07/22 08:58:28;;;;;;;;;;;;;;;21.94;39.47;101240.47;4156741;28;20009;-57
2023/07/22 09:00:30;;;;;;;;;;;;;;;21.97;39.53;101247.44;4161084;28;19948;-57
2023/07/22 09:02:35;;;;;;;;;;;;;;;21.97;39.53;101250.97;4159228;28;20020;-57
2023/07/22 09:04:36;;;;;;;;;;;;;;;21.98;39.54;101241.09;4159803;28;19921;-57
2023/07/22 09:06:39;;;;;;;;;;;;;;;21.98;39.90;101238.44;4148825;28;19921;-57
2023/07/22 09:08:42;;;;;;;;;;;;;;;21.99;39.72;101238.34;4151048;28;20012;-56
2023/07/22 09:10:44;;;;;;;;;;;;;;;22.01;39.67;101240.88;4159769;28;19924;-55
2023/07/22 09:12:46;;;;;;;;;;;;;;;22.01;39.82;101233.69;4163249;28;20377;-55
2023/07/22 09:14:49;;;;;;;;;;;;;;;22.04;39.66;101237.13;4154052;28;20020;-56
2023/07/22 09:16:51;;;;;;;;;;;;;;;22.05;39.74;101234.31;4147828;28;20000;-59
2023/07/22 09:18:54;;;;;;;;;;;;;;;22.26;42.12;101231.84;4142311;28;19926;-57
2023/07/22 09:20:56;;;;;;;;;;;;;;;22.41;40.77;101224.44;4147157;28;19929;-57
2023/07/22 09:22:58;;;;;;;;;;;;;;;22.49;41.05;101222.03;4142730;28;19921;-56
2023/07/22 09:25:23;;;;;;;;;;;;;;;22.55;40.94;101231.41;4152553;28;19929;-58
2023/07/22 09:27:34;;;;;;;;;;;;;;;22.60;40.43;101226.56;4148801;28;19928;-55
2023/07/22 09:29:40;;;;;;;;;;;;;;;22.57;40.80;101225.94;4151502;28;19975;-55
2023/07/22 09:31:59;;;;;;;;;;;;;;;22.63;40.44;101228.97;4148309;28;19932;-56
2023/07/22 09:34:09;;;;;;;;;;;;;;;22.68;40.18;101220.56;4149052;28;20012;-58
2023/07/22 09:36:12;;;;;;;;;;;;;;;22.65;39.42;101212.78;4156780;28;20446;-58
2023/07/22 09:38:17;;;;;;;;;;;;;;;22.65;39.47;101218.16;4148199;28;19925;-59
2023/07/22 09:40:21;;;;;;;;;;;;;;;22.70;39.46;101215.09;4152918;28;19976;-57
2023/07/22 09:42:26;;;;;;;;;;;;;;;22.74;39.18;101217.41;4132284;28;20363;-57
2023/07/22 09:44:32;;;;;;;;;;;;;;;22.80;39.19;101216.06;4143628;28;20411;-57
2023/07/22 09:46:34;;;;;;;;;;;;;;;22.83;39.08;101220.34;4155392;28;19929;-52
2023/07/22 09:48:41;;;;;;;;;;;;;;;22.84;39.11;101214.84;4147849;28;20432;-57
2023/07/22 09:50:43;;;;;;;;;;;;;;;22.83;38.75;101213.13;4158476;28;19944;-57
2023/07/22 09:52:46;;;;;;;;;;;;;;;22.84;39.13;101206.78;4147975;28;19984;-63
2023/07/22 09:54:49;;;;;;;;;;;;;;;22.85;38.80;101208.50;4151752;28;19928;-60
2023/07/22 09:56:50;;;;;;;;;;;;;;;22.85;39.11;101216.56;4155732;28;20336;-56
2023/07/22 09:58:52;;;;;;;;;;;;;;;22.84;38.99;101209.47;4147789;28;20292;-58
2023/07/22 10:00:54;;;;;;;;;;;;;;;22.81;38.61;101213.25;4157835;28;20281;-58
2023/07/22 10:02:56;;;;;;;;;;;;;;;22.84;38.70;101203.28;4148040;28;19967;-58
2023/07/22 10:04:59;;;;;;;;;;;;;;;22.81;38.67;101199.84;4150268;28;19921;-61
2023/07/22 10:07:05;;;;;;;;;;;;;;;22.81;38.72;101209.75;4156808;28;19936;-61
2023/07/22 10:09:08;;;;;;;;;;;;;;;22.80;38.63;101208.88;4146902;28;19980;-57
2023/07/22 10:11:11;;;;;;;;;;;;;;;22.79;39.00;101206.31;4158121;28;19921;-61
2023/07/22 10:13:13;;;;;;;;;;;;;;;22.78;38.58;101210.84;4149038;28;19927;-60
2023/07/22 10:15:15;;;;;;;;;;;;;;;22.75;38.85;101213.75;4149293;28;19921;-60
2023/07/22 10:17:17;;;;;;;;;;;;;;;22.74;39.28;101219.25;4157127;28;19928;-61
2023/07/22 10:19:19;;;;;;;;;;;;;;;22.72;38.86;101213.16;4146406;28;20347;-59
2023/07/22 10:21:21;;;;;;;;;;;;;;;22.70;38.96;101212.41;4156735;28;20388;-61
2023/07/22 10:23:25;;;;;;;;;;;;;;;22.68;39.23;101215.22;4150283;28;20016;-60
2023/07/22 10:25:26;;;;;;;;;;;;;;;22.68;39.33;101207.16;4148850;28;20402;-58
2023/07/22 10:27:28;;;;;;;;;;;;;;;22.69;39.52;101202.69;4160913;28;19990;-57